sensor_id;sensor_type;location;lat;lon;timestamp;P1;durP1;ratioP1;P2;durP2;ratioP2
84019;SDS011;74102;49.084;13.694;2023-12-04T00:01:12;7.90;;;2.58;;
84019;SDS011;74102;49.084;13.694;2023-12-04T00:03:37;7.30;;;3.13;;
84019;SDS011;74102;49.084;13.694;2023-12-04T00:06:02;6.80;;;3.03;;
84019;SDS011;74102;49.084;13.694;2023-12-04T00:08:28;5.50;;;2.42;;
84019;SDS011;74102;49.084;13.694;2023-12-04T00:10:53;5.47;;;2.10;;
84019;SDS011;74102;49.084;13.694;2023-12-04T00:13:19;4.80;;;2.03;;
84019;SDS011;74102;49.084;13.694;2023-12-04T00:15:44;6.97;;;2.88;;
84019;SDS011;74102;49.084;13.694;2023-12-04T00:18:10;7.07;;;2.47;;
84019;SDS011;74102;49.084;13.694;2023-12-04T00:20:35;7.20;;;2.90;;
84019;SDS011;74102;49.084;13.694;2023-12-04T00:23:01;6.65;;;2.25;;
84019;SDS011;74102;49.084;13.694;2023-12-04T00:25:27;5.47;;;2.20;;
84019;SDS011;74102;49.084;13.694;2023-12-04T00:27:52;5.75;;;2.42;;
84019;SDS011;74102;49.084;13.694;2023-12-04T00:30:18;6.18;;;2.13;;
84019;SDS011;74102;49.084;13.694;2023-12-04T00:32:43;4.47;;;2.10;;
84019;SDS011;74102;49.084;13.694;2023-12-04T00:35:09;4.75;;;1.60;;
84019;SDS011;74102;49.084;13.694;2023-12-04T00:37:34;5.15;;;2.00;;
84019;SDS011;74102;49.084;13.694;2023-12-04T00:40:03;6.55;;;2.55;;
84019;SDS011;74102;49.084;13.694;2023-12-04T00:42:30;7.25;;;2.28;;
84019;SDS011;74102;49.084;13.694;2023-12-04T00:44:55;5.22;;;2.00;;
84019;SDS011;74102;49.084;13.694;2023-12-04T00:47:20;4.15;;;2.58;;
84019;SDS011;74102;49.084;13.694;2023-12-04T00:49:46;6.72;;;2.38;;
84019;SDS011;74102;49.084;13.694;2023-12-04T00:52:11;6.32;;;1.92;;
84019;SDS011;74102;49.084;13.694;2023-12-04T00:54:38;5.30;;;1.95;;
84019;SDS011;74102;49.084;13.694;2023-12-04T00:57:07;4.88;;;1.85;;
84019;SDS011;74102;49.084;13.694;2023-12-04T00:59:33;5.55;;;1.40;;
84019;SDS011;74102;49.084;13.694;2023-12-04T01:01:59;6.47;;;2.20;;
84019;SDS011;74102;49.084;13.694;2023-12-04T01:04:24;5.90;;;2.13;;
84019;SDS011;74102;49.084;13.694;2023-12-04T01:06:50;4.70;;;1.80;;
84019;SDS011;74102;49.084;13.694;2023-12-04T01:09:17;4.60;;;1.85;;
84019;SDS011;74102;49.084;13.694;2023-12-04T01:11:42;5.80;;;2.05;;
84019;SDS011;74102;49.084;13.694;2023-12-04T01:14:08;4.55;;;1.80;;
84019;SDS011;74102;49.084;13.694;2023-12-04T01:16:33;5.07;;;2.10;;
84019;SDS011;74102;49.084;13.694;2023-12-04T01:18:59;5.40;;;2.30;;
84019;SDS011;74102;49.084;13.694;2023-12-04T01:21:24;4.80;;;2.15;;
84019;SDS011;74102;49.084;13.694;2023-12-04T01:23:49;8.85;;;2.80;;
84019;SDS011;74102;49.084;13.694;2023-12-04T01:26:15;6.90;;;2.55;;
84019;SDS011;74102;49.084;13.694;2023-12-04T01:28:40;5.20;;;2.33;;
84019;SDS011;74102;49.084;13.694;2023-12-04T01:31:06;5.30;;;2.33;;
84019;SDS011;74102;49.084;13.694;2023-12-04T01:33:31;5.65;;;2.65;;
84019;SDS011;74102;49.084;13.694;2023-12-04T01:35:57;5.68;;;2.60;;
84019;SDS011;74102;49.084;13.694;2023-12-04T01:38:22;6.75;;;2.95;;
84019;SDS011;74102;49.084;13.694;2023-12-04T01:40:48;7.80;;;3.60;;
84019;SDS011;74102;49.084;13.694;2023-12-04T01:43:13;6.85;;;2.83;;
84019;SDS011;74102;49.084;13.694;2023-12-04T01:45:40;8.63;;;2.20;;
84019;SDS011;74102;49.084;13.694;2023-12-04T01:48:05;6.07;;;1.95;;
84019;SDS011;74102;49.084;13.694;2023-12-04T01:50:33;5.93;;;2.03;;
84019;SDS011;74102;49.084;13.694;2023-12-04T01:52:59;3.85;;;1.65;;
84019;SDS011;74102;49.084;13.694;2023-12-04T01:55:26;3.85;;;1.45;;
84019;SDS011;74102;49.084;13.694;2023-12-04T01:57:52;3.53;;;1.10;;
84019;SDS011;74102;49.084;13.694;2023-12-04T02:00:18;4.43;;;1.75;;
84019;SDS011;74102;49.084;13.694;2023-12-04T02:02:46;3.40;;;1.02;;
84019;SDS011;74102;49.084;13.694;2023-12-04T02:05:11;4.30;;;1.20;;
84019;SDS011;74102;49.084;13.694;2023-12-04T02:07:40;2.58;;;0.80;;
84019;SDS011;74102;49.084;13.694;2023-12-04T02:10:06;2.33;;;1.10;;
84019;SDS011;74102;49.084;13.694;2023-12-04T02:12:31;2.20;;;0.90;;
84019;SDS011;74102;49.084;13.694;2023-12-04T02:14:57;2.90;;;1.13;;
84019;SDS011;74102;49.084;13.694;2023-12-04T02:17:23;3.28;;;1.10;;
84019;SDS011;74102;49.084;13.694;2023-12-04T02:19:49;3.38;;;1.25;;
84019;SDS011;74102;49.084;13.694;2023-12-04T02:22:15;3.20;;;1.15;;
84019;SDS011;74102;49.084;13.694;2023-12-04T02:24:43;3.38;;;1.30;;
84019;SDS011;74102;49.084;13.694;2023-12-04T02:27:20;2.60;;;1.23;;
84019;SDS011;74102;49.084;13.694;2023-12-04T02:29:55;3.13;;;1.17;;
84019;SDS011;74102;49.084;13.694;2023-12-04T02:32:23;3.20;;;1.55;;
84019;SDS011;74102;49.084;13.694;2023-12-04T02:34:51;4.03;;;1.70;;
84019;SDS011;74102;49.084;13.694;2023-12-04T02:37:19;3.92;;;1.48;;
84019;SDS011;74102;49.084;13.694;2023-12-04T02:39:46;5.10;;;1.65;;
84019;SDS011;74102;49.084;13.694;2023-12-04T02:42:13;4.43;;;1.90;;
84019;SDS011;74102;49.084;13.694;2023-12-04T02:44:39;5.40;;;2.45;;
84019;SDS011;74102;49.084;13.694;2023-12-04T02:47:04;5.47;;;2.20;;
84019;SDS011;74102;49.084;13.694;2023-12-04T02:49:30;5.45;;;2.22;;
84019;SDS011;74102;49.084;13.694;2023-12-04T02:51:55;5.43;;;2.30;;
84019;SDS011;74102;49.084;13.694;2023-12-04T02:54:22;7.15;;;2.30;;
84019;SDS011;74102;49.084;13.694;2023-12-04T02:56:47;3.33;;;1.20;;
84019;SDS011;74102;49.084;13.694;2023-12-04T02:59:13;4.25;;;1.33;;
84019;SDS011;74102;49.084;13.694;2023-12-04T03:01:38;1.95;;;0.80;;
84019;SDS011;74102;49.084;13.694;2023-12-04T03:04:04;2.00;;;0.80;;
84019;SDS011;74102;49.084;13.694;2023-12-04T03:06:29;2.92;;;1.13;;
84019;SDS011;74102;49.084;13.694;2023-12-04T03:08:54;2.70;;;1.10;;
84019;SDS011;74102;49.084;13.694;2023-12-04T03:11:20;4.95;;;1.35;;
84019;SDS011;74102;49.084;13.694;2023-12-04T03:13:45;3.92;;;1.40;;
84019;SDS011;74102;49.084;13.694;2023-12-04T03:16:17;5.97;;;2.17;;
84019;SDS011;74102;49.084;13.694;2023-12-04T03:18:43;6.95;;;2.85;;
84019;SDS011;74102;49.084;13.694;2023-12-04T03:21:08;9.02;;;2.88;;
84019;SDS011;74102;49.084;13.694;2023-12-04T03:23:33;5.45;;;2.13;;
84019;SDS011;74102;49.084;13.694;2023-12-04T03:25:59;6.75;;;2.75;;
84019;SDS011;74102;49.084;13.694;2023-12-04T03:28:24;9.13;;;2.58;;
84019;SDS011;74102;49.084;13.694;2023-12-04T03:30:50;10.80;;;2.63;;
84019;SDS011;74102;49.084;13.694;2023-12-04T03:33:15;5.78;;;2.05;;
84019;SDS011;74102;49.084;13.694;2023-12-04T03:35:40;8.25;;;1.98;;
84019;SDS011;74102;49.084;13.694;2023-12-04T03:38:06;7.85;;;1.88;;
84019;SDS011;74102;49.084;13.694;2023-12-04T03:40:31;6.40;;;1.80;;
84019;SDS011;74102;49.084;13.694;2023-12-04T03:42:57;5.25;;;2.03;;
84019;SDS011;74102;49.084;13.694;2023-12-04T03:45:22;4.80;;;1.77;;
84019;SDS011;74102;49.084;13.694;2023-12-04T03:47:47;7.38;;;1.80;;
84019;SDS011;74102;49.084;13.694;2023-12-04T03:50:13;4.53;;;1.65;;
84019;SDS011;74102;49.084;13.694;2023-12-04T03:52:38;5.15;;;1.15;;
84019;SDS011;74102;49.084;13.694;2023-12-04T03:55:04;2.30;;;1.08;;
84019;SDS011;74102;49.084;13.694;2023-12-04T03:57:30;3.25;;;1.00;;
84019;SDS011;74102;49.084;13.694;2023-12-04T03:59:55;2.97;;;1.05;;
84019;SDS011;74102;49.084;13.694;2023-12-04T04:02:20;3.30;;;1.15;;
84019;SDS011;74102;49.084;13.694;2023-12-04T04:04:46;3.58;;;1.27;;
84019;SDS011;74102;49.084;13.694;2023-12-04T04:07:11;3.15;;;1.38;;
84019;SDS011;74102;49.084;13.694;2023-12-04T04:09:37;3.20;;;1.10;;
84019;SDS011;74102;49.084;13.694;2023-12-04T04:12:02;8.10;;;1.42;;
84019;SDS011;74102;49.084;13.694;2023-12-04T04:14:28;2.92;;;1.30;;
84019;SDS011;74102;49.084;13.694;2023-12-04T04:16:53;3.85;;;1.55;;
84019;SDS011;74102;49.084;13.694;2023-12-04T04:19:18;1.98;;;0.82;;
84019;SDS011;74102;49.084;13.694;2023-12-04T04:21:44;3.10;;;1.23;;
84019;SDS011;74102;49.084;13.694;2023-12-04T04:24:09;3.45;;;0.90;;
84019;SDS011;74102;49.084;13.694;2023-12-04T04:26:35;1.83;;;0.80;;
84019;SDS011;74102;49.084;13.694;2023-12-04T04:29:00;2.90;;;1.35;;
84019;SDS011;74102;49.084;13.694;2023-12-04T04:31:26;2.83;;;1.05;;
84019;SDS011;74102;49.084;13.694;2023-12-04T04:33:51;4.03;;;1.42;;
84019;SDS011;74102;49.084;13.694;2023-12-04T04:36:17;3.95;;;1.77;;
84019;SDS011;74102;49.084;13.694;2023-12-04T04:38:42;3.38;;;1.58;;
84019;SDS011;74102;49.084;13.694;2023-12-04T04:41:12;3.40;;;1.63;;
84019;SDS011;74102;49.084;13.694;2023-12-04T04:43:38;3.30;;;1.42;;
84019;SDS011;74102;49.084;13.694;2023-12-04T04:46:03;3.38;;;1.67;;
84019;SDS011;74102;49.084;13.694;2023-12-04T04:48:29;2.63;;;1.20;;
84019;SDS011;74102;49.084;13.694;2023-12-04T04:50:54;4.10;;;1.20;;
84019;SDS011;74102;49.084;13.694;2023-12-04T04:53:20;2.47;;;1.33;;
84019;SDS011;74102;49.084;13.694;2023-12-04T04:55:46;2.42;;;0.75;;
84019;SDS011;74102;49.084;13.694;2023-12-04T04:58:11;2.33;;;0.90;;
84019;SDS011;74102;49.084;13.694;2023-12-04T05:00:36;2.13;;;0.82;;
84019;SDS011;74102;49.084;13.694;2023-12-04T05:03:02;1.90;;;0.80;;
84019;SDS011;74102;49.084;13.694;2023-12-04T05:05:27;2.40;;;0.75;;
84019;SDS011;74102;49.084;13.694;2023-12-04T05:07:53;1.20;;;0.50;;
84019;SDS011;74102;49.084;13.694;2023-12-04T05:10:18;0.68;;;0.40;;
84019;SDS011;74102;49.084;13.694;2023-12-04T05:12:43;2.03;;;0.68;;
84019;SDS011;74102;49.084;13.694;2023-12-04T05:15:09;1.10;;;0.47;;
84019;SDS011;74102;49.084;13.694;2023-12-04T05:17:34;1.27;;;0.70;;
84019;SDS011;74102;49.084;13.694;2023-12-04T05:20:00;1.40;;;0.50;;
84019;SDS011;74102;49.084;13.694;2023-12-04T05:22:25;0.68;;;0.40;;
84019;SDS011;74102;49.084;13.694;2023-12-04T05:24:50;0.47;;;0.32;;
84019;SDS011;74102;49.084;13.694;2023-12-04T05:27:16;0.93;;;0.57;;
84019;SDS011;74102;49.084;13.694;2023-12-04T05:29:41;0.95;;;0.50;;
84019;SDS011;74102;49.084;13.694;2023-12-04T05:32:06;1.63;;;0.57;;
84019;SDS011;74102;49.084;13.694;2023-12-04T05:34:32;1.27;;;0.60;;
84019;SDS011;74102;49.084;13.694;2023-12-04T05:36:57;0.77;;;0.40;;
84019;SDS011;74102;49.084;13.694;2023-12-04T05:39:22;0.47;;;0.47;;
84019;SDS011;74102;49.084;13.694;2023-12-04T05:41:48;1.42;;;0.50;;
84019;SDS011;74102;49.084;13.694;2023-12-04T05:44:13;1.80;;;0.75;;
84019;SDS011;74102;49.084;13.694;2023-12-04T05:46:39;1.38;;;0.60;;
84019;SDS011;74102;49.084;13.694;2023-12-04T05:49:04;1.58;;;0.60;;
84019;SDS011;74102;49.084;13.694;2023-12-04T05:51:30;1.13;;;0.55;;
84019;SDS011;74102;49.084;13.694;2023-12-04T05:53:55;1.45;;;0.70;;
84019;SDS011;74102;49.084;13.694;2023-12-04T05:56:21;2.17;;;1.00;;
84019;SDS011;74102;49.084;13.694;2023-12-04T05:58:46;2.08;;;0.70;;
84019;SDS011;74102;49.084;13.694;2023-12-04T06:01:11;1.80;;;0.90;;
84019;SDS011;74102;49.084;13.694;2023-12-04T06:03:37;1.98;;;0.70;;
84019;SDS011;74102;49.084;13.694;2023-12-04T06:06:02;2.38;;;1.30;;
84019;SDS011;74102;49.084;13.694;2023-12-04T06:08:28;2.55;;;0.73;;
84019;SDS011;74102;49.084;13.694;2023-12-04T06:10:53;3.67;;;0.98;;
84019;SDS011;74102;49.084;13.694;2023-12-04T06:13:18;1.88;;;0.82;;
84019;SDS011;74102;49.084;13.694;2023-12-04T06:15:44;2.58;;;1.15;;
84019;SDS011;74102;49.084;13.694;2023-12-04T06:18:09;4.00;;;1.77;;
84019;SDS011;74102;49.084;13.694;2023-12-04T06:20:35;4.80;;;1.60;;
84019;SDS011;74102;49.084;13.694;2023-12-04T06:23:00;2.50;;;0.90;;
84019;SDS011;74102;49.084;13.694;2023-12-04T06:25:26;2.47;;;0.77;;
84019;SDS011;74102;49.084;13.694;2023-12-04T06:27:51;3.03;;;1.33;;
84019;SDS011;74102;49.084;13.694;2023-12-04T06:30:17;4.72;;;2.17;;
84019;SDS011;74102;49.084;13.694;2023-12-04T06:32:43;4.28;;;1.55;;
84019;SDS011;74102;49.084;13.694;2023-12-04T06:35:09;2.97;;;1.15;;
84019;SDS011;74102;49.084;13.694;2023-12-04T06:37:36;3.50;;;1.23;;
84019;SDS011;74102;49.084;13.694;2023-12-04T06:40:04;2.17;;;0.90;;
84019;SDS011;74102;49.084;13.694;2023-12-04T06:42:33;2.72;;;1.05;;
84019;SDS011;74102;49.084;13.694;2023-12-04T06:45:01;4.68;;;2.45;;
84019;SDS011;74102;49.084;13.694;2023-12-04T06:47:27;8.95;;;4.22;;
84019;SDS011;74102;49.084;13.694;2023-12-04T06:49:56;7.65;;;4.40;;
84019;SDS011;74102;49.084;13.694;2023-12-04T06:52:21;8.45;;;3.72;;
84019;SDS011;74102;49.084;13.694;2023-12-04T06:54:47;10.35;;;3.47;;
84019;SDS011;74102;49.084;13.694;2023-12-04T06:57:12;6.38;;;2.97;;
84019;SDS011;74102;49.084;13.694;2023-12-04T06:59:40;7.18;;;4.05;;
84019;SDS011;74102;49.084;13.694;2023-12-04T07:02:06;8.40;;;4.38;;
84019;SDS011;74102;49.084;13.694;2023-12-04T07:04:32;9.30;;;4.57;;
84019;SDS011;74102;49.084;13.694;2023-12-04T07:06:58;6.85;;;3.42;;
84019;SDS011;74102;49.084;13.694;2023-12-04T07:11:55;6.25;;;2.50;;
84019;SDS011;74102;49.084;13.694;2023-12-04T07:14:20;6.30;;;2.35;;
84019;SDS011;74102;49.084;13.694;2023-12-04T07:16:45;5.80;;;2.00;;
84019;SDS011;74102;49.084;13.694;2023-12-04T07:19:11;3.85;;;1.70;;
84019;SDS011;74102;49.084;13.694;2023-12-04T07:21:39;4.03;;;1.60;;
84019;SDS011;74102;49.084;13.694;2023-12-04T07:24:06;6.30;;;2.00;;
84019;SDS011;74102;49.084;13.694;2023-12-04T07:26:32;4.43;;;2.30;;
84019;SDS011;74102;49.084;13.694;2023-12-04T07:28:58;6.03;;;1.70;;
84019;SDS011;74102;49.084;13.694;2023-12-04T07:31:23;5.70;;;2.33;;
84019;SDS011;74102;49.084;13.694;2023-12-04T07:33:49;5.28;;;2.75;;
84019;SDS011;74102;49.084;13.694;2023-12-04T07:36:14;6.50;;;2.80;;
84019;SDS011;74102;49.084;13.694;2023-12-04T07:38:39;6.30;;;2.85;;
84019;SDS011;74102;49.084;13.694;2023-12-04T07:41:05;8.32;;;4.55;;
84019;SDS011;74102;49.084;13.694;2023-12-04T07:43:30;8.50;;;3.88;;
84019;SDS011;74102;49.084;13.694;2023-12-04T07:45:56;8.98;;;3.80;;
84019;SDS011;74102;49.084;13.694;2023-12-04T07:48:22;7.82;;;4.53;;
84019;SDS011;74102;49.084;13.694;2023-12-04T07:50:48;7.20;;;3.78;;
84019;SDS011;74102;49.084;13.694;2023-12-04T07:53:13;9.82;;;4.55;;
84019;SDS011;74102;49.084;13.694;2023-12-04T07:55:39;7.80;;;3.90;;
84019;SDS011;74102;49.084;13.694;2023-12-04T07:58:04;8.82;;;3.35;;
84019;SDS011;74102;49.084;13.694;2023-12-04T08:00:29;9.27;;;5.22;;
84019;SDS011;74102;49.084;13.694;2023-12-04T08:02:55;9.02;;;3.60;;
84019;SDS011;74102;49.084;13.694;2023-12-04T08:05:21;5.63;;;2.85;;
84019;SDS011;74102;49.084;13.694;2023-12-04T08:07:46;5.97;;;2.78;;
84019;SDS011;74102;49.084;13.694;2023-12-04T08:10:12;7.40;;;3.15;;
84019;SDS011;74102;49.084;13.694;2023-12-04T08:12:38;7.10;;;3.20;;
84019;SDS011;74102;49.084;13.694;2023-12-04T08:15:04;5.80;;;2.97;;
84019;SDS011;74102;49.084;13.694;2023-12-04T08:17:30;6.55;;;3.33;;
84019;SDS011;74102;49.084;13.694;2023-12-04T08:19:55;13.07;;;4.80;;
84019;SDS011;74102;49.084;13.694;2023-12-04T08:22:21;9.35;;;3.75;;
84019;SDS011;74102;49.084;13.694;2023-12-04T08:24:46;9.07;;;4.78;;
84019;SDS011;74102;49.084;13.694;2023-12-04T08:27:12;9.57;;;3.70;;
84019;SDS011;74102;49.084;13.694;2023-12-04T08:29:39;9.90;;;5.07;;
84019;SDS011;74102;49.084;13.694;2023-12-04T08:32:05;15.77;;;8.00;;
84019;SDS011;74102;49.084;13.694;2023-12-04T08:34:31;13.93;;;6.93;;
84019;SDS011;74102;49.084;13.694;2023-12-04T08:36:56;12.63;;;7.07;;
84019;SDS011;74102;49.084;13.694;2023-12-04T08:39:21;15.13;;;7.28;;
84019;SDS011;74102;49.084;13.694;2023-12-04T08:41:47;11.65;;;5.80;;
84019;SDS011;74102;49.084;13.694;2023-12-04T08:44:13;17.90;;;7.85;;
84019;SDS011;74102;49.084;13.694;2023-12-04T08:46:39;15.85;;;7.82;;
84019;SDS011;74102;49.084;13.694;2023-12-04T08:49:05;14.95;;;6.32;;
84019;SDS011;74102;49.084;13.694;2023-12-04T08:51:30;13.30;;;6.05;;
84019;SDS011;74102;49.084;13.694;2023-12-04T08:53:55;10.07;;;4.68;;
84019;SDS011;74102;49.084;13.694;2023-12-04T08:56:21;12.23;;;5.50;;
84019;SDS011;74102;49.084;13.694;2023-12-04T08:58:46;17.55;;;8.13;;
84019;SDS011;74102;49.084;13.694;2023-12-04T09:01:12;19.67;;;9.07;;
84019;SDS011;74102;49.084;13.694;2023-12-04T09:03:37;20.73;;;10.68;;
84019;SDS011;74102;49.084;13.694;2023-12-04T09:06:03;26.75;;;13.10;;
84019;SDS011;74102;49.084;13.694;2023-12-04T09:08:28;25.77;;;12.43;;
84019;SDS011;74102;49.084;13.694;2023-12-04T09:10:54;29.45;;;13.45;;
84019;SDS011;74102;49.084;13.694;2023-12-04T09:13:21;17.23;;;8.85;;
84019;SDS011;74102;49.084;13.694;2023-12-04T09:15:47;16.20;;;7.45;;
84019;SDS011;74102;49.084;13.694;2023-12-04T09:18:13;15.02;;;9.40;;
84019;SDS011;74102;49.084;13.694;2023-12-04T09:20:38;17.20;;;8.40;;
84019;SDS011;74102;49.084;13.694;2023-12-04T09:23:03;19.65;;;9.18;;
84019;SDS011;74102;49.084;13.694;2023-12-04T09:25:29;21.58;;;11.60;;
84019;SDS011;74102;49.084;13.694;2023-12-04T09:27:54;22.80;;;13.13;;
84019;SDS011;74102;49.084;13.694;2023-12-04T09:30:20;22.20;;;12.07;;
84019;SDS011;74102;49.084;13.694;2023-12-04T09:32:45;23.40;;;11.73;;
84019;SDS011;74102;49.084;13.694;2023-12-04T09:35:10;21.35;;;11.82;;
84019;SDS011;74102;49.084;13.694;2023-12-04T09:37:36;36.97;;;17.10;;
84019;SDS011;74102;49.084;13.694;2023-12-04T09:40:01;29.65;;;13.98;;
84019;SDS011;74102;49.084;13.694;2023-12-04T09:42:27;32.88;;;16.55;;
84019;SDS011;74102;49.084;13.694;2023-12-04T09:44:55;30.45;;;14.02;;
84019;SDS011;74102;49.084;13.694;2023-12-04T09:47:22;29.40;;;12.60;;
84019;SDS011;74102;49.084;13.694;2023-12-04T09:49:48;20.73;;;10.88;;
84019;SDS011;74102;49.084;13.694;2023-12-04T09:52:17;22.17;;;10.25;;
84019;SDS011;74102;49.084;13.694;2023-12-04T09:54:44;18.23;;;8.73;;
84019;SDS011;74102;49.084;13.694;2023-12-04T09:57:09;17.85;;;8.52;;
84019;SDS011;74102;49.084;13.694;2023-12-04T09:59:35;28.73;;;15.65;;
84019;SDS011;74102;49.084;13.694;2023-12-04T10:02:01;20.52;;;10.35;;
84019;SDS011;74102;49.084;13.694;2023-12-04T10:04:27;18.85;;;9.85;;
84019;SDS011;74102;49.084;13.694;2023-12-04T10:06:52;19.58;;;9.85;;
84019;SDS011;74102;49.084;13.694;2023-12-04T10:09:18;17.90;;;10.43;;
84019;SDS011;74102;49.084;13.694;2023-12-04T10:11:47;15.52;;;7.97;;
84019;SDS011;74102;49.084;13.694;2023-12-04T10:14:16;12.80;;;7.18;;
84019;SDS011;74102;49.084;13.694;2023-12-04T10:16:45;12.80;;;7.47;;
84019;SDS011;74102;49.084;13.694;2023-12-04T10:21:48;18.13;;;7.85;;
84019;SDS011;74102;49.084;13.694;2023-12-04T10:26:52;14.63;;;5.72;;
84019;SDS011;74102;49.084;13.694;2023-12-04T10:29:18;11.63;;;5.43;;
84019;SDS011;74102;49.084;13.694;2023-12-04T10:31:43;13.02;;;6.03;;
84019;SDS011;74102;49.084;13.694;2023-12-04T10:34:09;18.85;;;8.32;;
84019;SDS011;74102;49.084;13.694;2023-12-04T10:36:37;14.82;;;6.95;;
84019;SDS011;74102;49.084;13.694;2023-12-04T10:39:03;15.35;;;7.25;;
84019;SDS011;74102;49.084;13.694;2023-12-04T10:41:31;15.07;;;7.55;;
84019;SDS011;74102;49.084;13.694;2023-12-04T10:43:57;18.80;;;8.55;;
84019;SDS011;74102;49.084;13.694;2023-12-04T10:46:26;12.18;;;6.18;;
84019;SDS011;74102;49.084;13.694;2023-12-04T10:48:52;14.05;;;6.57;;
84019;SDS011;74102;49.084;13.694;2023-12-04T10:51:18;16.15;;;7.07;;
84019;SDS011;74102;49.084;13.694;2023-12-04T10:53:44;12.48;;;5.55;;
84019;SDS011;74102;49.084;13.694;2023-12-04T10:56:10;11.25;;;5.45;;
84019;SDS011;74102;49.084;13.694;2023-12-04T10:58:43;11.82;;;5.18;;
84019;SDS011;74102;49.084;13.694;2023-12-04T11:01:12;16.45;;;9.27;;
84019;SDS011;74102;49.084;13.694;2023-12-04T11:03:45;12.85;;;5.05;;
84019;SDS011;74102;49.084;13.694;2023-12-04T11:06:14;12.18;;;5.30;;
84019;SDS011;74102;49.084;13.694;2023-12-04T11:08:42;28.85;;;15.48;;
84019;SDS011;74102;49.084;13.694;2023-12-04T11:11:10;42.13;;;19.45;;
84019;SDS011;74102;49.084;13.694;2023-12-04T11:13:43;68.75;;;29.25;;
84019;SDS011;74102;49.084;13.694;2023-12-04T11:16:18;73.55;;;33.45;;
84019;SDS011;74102;49.084;13.694;2023-12-04T11:18:51;67.05;;;31.25;;
84019;SDS011;74102;49.084;13.694;2023-12-04T11:21:21;51.63;;;22.95;;
84019;SDS011;74102;49.084;13.694;2023-12-04T11:23:48;30.45;;;13.43;;
84019;SDS011;74102;49.084;13.694;2023-12-04T11:26:14;16.77;;;9.52;;
84019;SDS011;74102;49.084;13.694;2023-12-04T11:28:40;17.30;;;7.85;;
84019;SDS011;74102;49.084;13.694;2023-12-04T11:31:07;16.80;;;7.18;;
84019;SDS011;74102;49.084;13.694;2023-12-04T11:33:36;12.48;;;4.75;;
84019;SDS011;74102;49.084;13.694;2023-12-04T11:36:09;12.30;;;4.93;;
84019;SDS011;74102;49.084;13.694;2023-12-04T11:38:38;14.63;;;6.57;;
84019;SDS011;74102;49.084;13.694;2023-12-04T11:41:16;17.60;;;8.57;;
84019;SDS011;74102;49.084;13.694;2023-12-04T11:43:42;23.73;;;8.35;;
84019;SDS011;74102;49.084;13.694;2023-12-04T11:46:09;17.83;;;8.40;;
84019;SDS011;74102;49.084;13.694;2023-12-04T11:48:38;18.95;;;7.10;;
84019;SDS011;74102;49.084;13.694;2023-12-04T11:51:07;18.67;;;8.10;;
84019;SDS011;74102;49.084;13.694;2023-12-04T11:53:37;20.73;;;9.20;;
84019;SDS011;74102;49.084;13.694;2023-12-04T11:56:10;13.25;;;5.97;;
84019;SDS011;74102;49.084;13.694;2023-12-04T11:58:43;13.65;;;5.45;;
84019;SDS011;74102;49.084;13.694;2023-12-04T12:01:09;11.90;;;5.63;;
84019;SDS011;74102;49.084;13.694;2023-12-04T12:03:34;14.93;;;6.32;;
84019;SDS011;74102;49.084;13.694;2023-12-04T12:06:00;17.65;;;6.68;;
84019;SDS011;74102;49.084;13.694;2023-12-04T12:08:25;11.10;;;4.78;;
84019;SDS011;74102;49.084;13.694;2023-12-04T12:10:53;12.75;;;6.05;;
84019;SDS011;74102;49.084;13.694;2023-12-04T12:13:20;13.13;;;5.63;;
84019;SDS011;74102;49.084;13.694;2023-12-04T12:15:50;13.77;;;6.07;;
84019;SDS011;74102;49.084;13.694;2023-12-04T12:18:16;13.77;;;6.00;;
84019;SDS011;74102;49.084;13.694;2023-12-04T12:20:41;11.80;;;6.13;;
84019;SDS011;74102;49.084;13.694;2023-12-04T12:23:07;22.48;;;9.95;;
84019;SDS011;74102;49.084;13.694;2023-12-04T12:25:34;15.20;;;6.90;;
84019;SDS011;74102;49.084;13.694;2023-12-04T12:28:03;17.25;;;7.50;;
84019;SDS011;74102;49.084;13.694;2023-12-04T12:30:32;9.65;;;4.40;;
84019;SDS011;74102;49.084;13.694;2023-12-04T12:32:57;7.03;;;3.80;;
84019;SDS011;74102;49.084;13.694;2023-12-04T12:35:23;9.30;;;4.57;;
84019;SDS011;74102;49.084;13.694;2023-12-04T12:37:49;19.60;;;9.63;;
84019;SDS011;74102;49.084;13.694;2023-12-04T12:40:18;18.60;;;8.82;;
84019;SDS011;74102;49.084;13.694;2023-12-04T12:42:45;13.65;;;6.53;;
84019;SDS011;74102;49.084;13.694;2023-12-04T12:45:11;14.32;;;6.03;;
84019;SDS011;74102;49.084;13.694;2023-12-04T12:47:37;14.20;;;6.78;;
84019;SDS011;74102;49.084;13.694;2023-12-04T12:50:03;19.58;;;9.85;;
84019;SDS011;74102;49.084;13.694;2023-12-04T12:52:33;12.27;;;5.85;;
84019;SDS011;74102;49.084;13.694;2023-12-04T12:54:58;11.82;;;5.07;;
84019;SDS011;74102;49.084;13.694;2023-12-04T12:57:24;12.25;;;5.63;;
84019;SDS011;74102;49.084;13.694;2023-12-04T12:59:50;9.18;;;4.88;;
84019;SDS011;74102;49.084;13.694;2023-12-04T13:02:16;9.68;;;4.75;;
84019;SDS011;74102;49.084;13.694;2023-12-04T13:04:42;11.43;;;4.80;;
84019;SDS011;74102;49.084;13.694;2023-12-04T13:07:08;11.50;;;6.20;;
84019;SDS011;74102;49.084;13.694;2023-12-04T13:09:34;13.95;;;6.13;;
84019;SDS011;74102;49.084;13.694;2023-12-04T13:12:00;16.63;;;9.00;;
84019;SDS011;74102;49.084;13.694;2023-12-04T13:14:27;16.80;;;7.88;;
84019;SDS011;74102;49.084;13.694;2023-12-04T13:16:52;20.80;;;10.45;;
84019;SDS011;74102;49.084;13.694;2023-12-04T13:19:19;11.93;;;6.25;;
84019;SDS011;74102;49.084;13.694;2023-12-04T13:21:45;14.20;;;6.45;;
84019;SDS011;74102;49.084;13.694;2023-12-04T13:24:11;32.05;;;13.80;;
84019;SDS011;74102;49.084;13.694;2023-12-04T13:26:37;95.55;;;31.10;;
84019;SDS011;74102;49.084;13.694;2023-12-04T13:29:02;31.02;;;9.48;;
84019;SDS011;74102;49.084;13.694;2023-12-04T13:31:28;27.73;;;10.85;;
84019;SDS011;74102;49.084;13.694;2023-12-04T13:33:53;14.38;;;5.95;;
84019;SDS011;74102;49.084;13.694;2023-12-04T13:36:18;53.22;;;17.90;;
84019;SDS011;74102;49.084;13.694;2023-12-04T13:38:44;29.65;;;10.48;;
84019;SDS011;74102;49.084;13.694;2023-12-04T13:41:09;14.75;;;6.18;;
84019;SDS011;74102;49.084;13.694;2023-12-04T13:43:53;9.48;;;4.78;;
84019;SDS011;74102;49.084;13.694;2023-12-04T13:46:20;15.02;;;6.57;;
84019;SDS011;74102;49.084;13.694;2023-12-04T13:48:45;18.90;;;7.35;;
84019;SDS011;74102;49.084;13.694;2023-12-04T13:51:11;11.90;;;4.75;;
84019;SDS011;74102;49.084;13.694;2023-12-04T13:53:39;10.07;;;5.00;;
84019;SDS011;74102;49.084;13.694;2023-12-04T13:56:10;12.45;;;6.63;;
84019;SDS011;74102;49.084;13.694;2023-12-04T13:58:41;12.38;;;6.93;;
84019;SDS011;74102;49.084;13.694;2023-12-04T14:01:10;10.95;;;6.03;;
84019;SDS011;74102;49.084;13.694;2023-12-04T14:03:42;12.00;;;5.55;;
84019;SDS011;74102;49.084;13.694;2023-12-04T14:06:08;11.18;;;5.53;;
84019;SDS011;74102;49.084;13.694;2023-12-04T14:08:34;12.85;;;6.43;;
84019;SDS011;74102;49.084;13.694;2023-12-04T14:11:01;16.83;;;8.48;;
84019;SDS011;74102;49.084;13.694;2023-12-04T14:13:27;16.00;;;6.13;;
84019;SDS011;74102;49.084;13.694;2023-12-04T14:15:52;14.48;;;6.03;;
84019;SDS011;74102;49.084;13.694;2023-12-04T14:18:18;12.13;;;6.03;;
84019;SDS011;74102;49.084;13.694;2023-12-04T14:20:43;18.15;;;8.90;;
84019;SDS011;74102;49.084;13.694;2023-12-04T14:23:09;11.57;;;6.20;;
84019;SDS011;74102;49.084;13.694;2023-12-04T14:25:34;12.20;;;6.35;;
84019;SDS011;74102;49.084;13.694;2023-12-04T14:27:59;11.23;;;5.85;;
84019;SDS011;74102;49.084;13.694;2023-12-04T14:30:26;10.88;;;5.82;;